Terminal Aerodrome Forecast
Issued by NWS

Home | Current Version | Previous Version | Text Only | Print | Product List | Glossary On
Versions: 1 2 3 4 5 6 7 8 9 10 11 12 13 14
000
FTUS45 KFGZ 270500
TAFGCN
TAF
KGCN 270531Z 2706/2806 VRB03KT P6SM SCT080
     FM271700 24008G15KT P6SM SCT050 OVC080
     FM280400 25008KT P6SM -SHRASN SCT030 OVC040=

USA.gov is the U.S. government's official web portal to all federal, state and local government web resources and services.